Time;durP1;ratioP1;P1;durP2;ratioP2;P2;SDS_P1;SDS_P2;PMS_P1;PMS_P2;Temp;Humidity;BMP_temperature;BMP_pressure;BME280_temperature;BME280_humidity;BME280_pressure;Samples;Min_cycle;Max_cycle;Signal;HPM_P1;HPM_P2
2024/02/25 00:00:54;;;;;;;5.47;3.40;;;14.70;99.90;;;;;;5013186;28;20531;-76
2024/02/25 00:03:21;;;;;;;6.07;3.70;;;14.70;99.90;;;;;;5011628;28;20116;-76
2024/02/25 00:05:46;;;;;;;;;;;14.70;99.90;;;;;;5008615;28;20041;-76
2024/02/25 00:08:12;;;;;;;5.63;3.20;;;14.70;99.90;;;;;;5011449;28;19917;-76
2024/02/25 00:10:37;;;;;;;4.87;3.17;;;14.70;99.90;;;;;;5011910;28;20029;-76
2024/02/25 00:13:03;;;;;;;4.83;2.60;;;14.70;99.90;;;;;;5012926;28;20030;-77
2024/02/25 00:15:29;;;;;;;5.53;3.37;;;14.70;99.90;;;;;;5009713;28;20402;-79
2024/02/25 00:17:55;;;;;;;4.50;3.60;;;14.70;99.90;;;;;;5011658;28;20033;-81
2024/02/25 00:20:20;;;;;;;3.87;2.73;;;14.70;99.90;;;;;;5011396;28;20112;-76
2024/02/25 00:22:46;;;;;;;4.77;2.70;;;14.70;99.90;;;;;;5000814;28;20046;-76
2024/02/25 00:25:12;;;;;;;4.07;2.75;;;14.70;99.90;;;;;;5006626;28;20076;-76
2024/02/25 00:27:38;;;;;;;4.00;2.70;;;14.60;99.90;;;;;;5000496;28;20092;-76
2024/02/25 00:30:04;;;;;;;4.10;2.57;;;14.60;99.90;;;;;;5007776;28;20564;-76
2024/02/25 00:32:30;;;;;;;5.10;2.58;;;14.70;99.90;;;;;;5010814;28;20030;-78
2024/02/25 00:34:55;;;;;;;4.93;2.90;;;14.60;99.90;;;;;;5005306;28;20510;-78
2024/02/25 00:37:21;;;;;;;4.30;2.60;;;14.70;99.90;;;;;;5009046;28;20033;-77
2024/02/25 00:39:47;;;;;;;3.63;2.63;;;14.60;99.90;;;;;;5001234;28;20079;-76
2024/02/25 00:42:13;;;;;;;5.13;2.60;;;14.60;99.90;;;;;;5010421;28;20034;-75
2024/02/25 00:44:39;;;;;;;3.77;2.53;;;14.60;99.90;;;;;;5011975;28;20056;-75
2024/02/25 00:47:05;;;;;;;;;;;14.60;99.90;;;;;;5007812;28;20375;-76
2024/02/25 00:49:31;;;;;;;3.57;2.60;;;14.60;99.90;;;;;;5012529;28;19912;-75
2024/02/25 00:51:56;;;;;;;2.80;2.00;;;14.50;99.90;;;;;;5010665;28;20274;-76
2024/02/25 00:54:22;;;;;;;5.97;2.83;;;14.50;99.90;;;;;;5011492;28;20092;-77
2024/02/25 00:56:48;;;;;;;4.00;2.77;;;14.50;99.90;;;;;;5000510;28;20040;-79
2024/02/25 00:59:15;;;;;;;3.63;2.33;;;14.60;99.90;;;;;;5003120;28;20032;-76
2024/02/25 01:01:40;;;;;;;3.63;2.58;;;14.60;99.90;;;;;;5008745;28;20061;-78
2024/02/25 01:04:06;;;;;;;4.50;2.43;;;14.50;99.90;;;;;;5004558;28;20189;-77
2024/02/25 01:06:32;;;;;;;8.50;2.20;;;14.50;99.90;;;;;;5007661;28;20026;-78
2024/02/25 01:08:57;;;;;;;2.83;1.87;;;14.50;99.90;;;;;;5004968;28;20046;-75
2024/02/25 01:11:23;;;;;;;4.03;2.40;;;14.50;99.90;;;;;;5009362;28;20113;-78
2024/02/25 01:13:49;;;;;;;3.33;1.90;;;14.50;99.90;;;;;;5010573;28;20387;-75
2024/02/25 01:16:14;;;;;;;2.37;1.77;;;14.50;99.90;;;;;;5006167;28;20060;-76
2024/02/25 01:18:40;;;;;;;3.77;2.27;;;14.50;99.90;;;;;;5008623;28;20073;-79
2024/02/25 01:21:06;;;;;;;2.97;1.67;;;14.50;99.90;;;;;;5006377;28;20034;-80
2024/02/25 01:23:32;;;;;;;3.17;1.90;;;14.50;99.90;;;;;;5007222;28;20495;-75
2024/02/25 01:25:57;;;;;;;3.20;1.93;;;14.40;99.90;;;;;;5011816;28;20030;-77
2024/02/25 01:28:23;;;;;;;2.00;1.47;;;14.50;99.90;;;;;;5002094;28;20035;-75
2024/02/25 01:30:49;;;;;;;3.30;1.80;;;14.40;99.90;;;;;;4998700;28;20026;-75
2024/02/25 01:33:15;;;;;;;4.78;1.92;;;14.50;99.90;;;;;;5006112;28;20069;-77
2024/02/25 01:35:42;;;;;;;3.73;1.87;;;14.50;99.90;;;;;;5003255;28;20467;-76
2024/02/25 01:38:07;;;;;;;;;;;14.40;99.90;;;;;;5009422;28;20087;-77
2024/02/25 01:40:33;;;;;;;2.20;1.60;;;14.40;99.90;;;;;;5002283;28;19913;-76
2024/02/25 01:43:10;;;;;;;3.87;1.90;;;14.40;99.90;;;;;;5003528;28;20498;-75
2024/02/25 01:45:35;;;;;;;;;;;14.40;99.90;;;;;;5001183;28;20441;-75
2024/02/25 01:48:05;;;;;;;2.90;1.90;;;14.40;99.90;;;;;;4995996;28;19917;-78
2024/02/25 01:50:32;;;;;;;5.18;1.58;;;14.40;99.90;;;;;;5011567;28;20062;-80
2024/02/25 01:52:59;;;;;;;2.60;1.63;;;14.40;99.90;;;;;;5007965;28;20029;-80
2024/02/25 01:55:25;;;;;;;2.90;1.55;;;14.40;99.90;;;;;;4997490;28;20037;-76
2024/02/25 01:57:53;;;;;;;2.78;1.77;;;14.30;99.90;;;;;;5011181;28;20033;-76
2024/02/25 02:00:19;;;;;;;2.38;1.60;;;14.40;99.90;;;;;;4997116;28;20766;-76
2024/02/25 02:02:45;;;;;;;2.33;1.60;;;14.30;99.90;;;;;;5006947;28;20092;-80
2024/02/25 02:05:11;;;;;;;1.92;1.40;;;14.40;99.90;;;;;;5008501;28;20041;-77
2024/02/25 02:07:40;;;;;;;3.43;1.60;;;14.30;99.90;;;;;;5009477;28;20109;-79
2024/02/25 02:10:09;;;;;;;1.70;1.60;;;14.30;99.90;;;;;;5009709;28;20034;-77
2024/02/25 02:12:40;;;;;;;2.17;1.55;;;14.30;99.90;;;;;;5009616;28;20029;-75
2024/02/25 02:15:07;;;;;;;2.47;1.48;;;14.30;99.90;;;;;;5009561;28;20439;-77
2024/02/25 02:17:33;;;;;;;2.13;1.23;;;14.30;99.90;;;;;;5001253;28;20026;-77
2024/02/25 02:20:00;;;;;;;2.45;1.42;;;14.30;99.90;;;;;;5010952;28;20389;-77
2024/02/25 02:22:26;;;;;;;2.30;1.40;;;14.30;99.90;;;;;;5010586;28;20049;-75
2024/02/25 02:24:53;;;;;;;2.58;1.33;;;14.30;99.90;;;;;;5009646;28;20052;-75
2024/02/25 02:27:18;;;;;;;1.70;1.25;;;14.30;99.90;;;;;;5007166;28;20030;-75
2024/02/25 02:29:44;;;;;;;4.13;1.53;;;14.20;99.90;;;;;;5010649;28;20075;-75
2024/02/25 02:32:10;;;;;;;2.83;1.50;;;14.20;99.90;;;;;;5009302;28;20022;-78
2024/02/25 02:34:35;;;;;;;1.97;1.40;;;14.30;99.90;;;;;;5009475;28;20034;-78
2024/02/25 02:37:01;;;;;;;1.43;1.13;;;14.20;99.90;;;;;;5004392;28;20392;-76
2024/02/25 02:39:27;;;;;;;3.13;1.45;;;14.20;99.90;;;;;;4995227;28;20027;-78
2024/02/25 02:41:53;;;;;;;1.37;1.00;;;14.20;99.90;;;;;;5005289;28;20489;-77
2024/02/25 02:44:19;;;;;;;1.30;1.20;;;14.20;99.90;;;;;;5003546;28;20047;-77
2024/02/25 02:46:44;;;;;;;4.00;1.50;;;14.20;99.90;;;;;;5003713;28;20391;-75
2024/02/25 02:49:10;;;;;;;1.50;1.20;;;14.20;99.90;;;;;;5007981;28;20057;-76
2024/02/25 02:51:36;;;;;;;1.70;1.30;;;14.20;99.90;;;;;;5008119;28;20023;-75
2024/02/25 02:54:02;;;;;;;1.77;1.23;;;14.20;99.90;;;;;;5008899;28;20107;-78
2024/02/25 02:56:34;;;;;;;3.25;1.40;;;14.20;99.90;;;;;;5010112;28;20251;-80
2024/02/25 02:58:59;;;;;;;2.22;1.55;;;14.20;99.90;;;;;;5009148;28;20044;-75
2024/02/25 03:01:25;;;;;;;2.13;1.10;;;14.20;99.90;;;;;;5009163;28;20038;-76
2024/02/25 03:03:51;;;;;;;2.90;1.03;;;14.10;99.90;;;;;;5007677;28;20038;-76
2024/02/25 03:06:20;;;;;;;2.20;1.37;;;14.20;99.90;;;;;;5005451;28;20532;-76
2024/02/25 03:08:45;;;;;;;3.50;1.35;;;14.20;99.90;;;;;;5012466;28;20054;-75
2024/02/25 03:11:11;;;;;;;1.77;1.37;;;14.10;99.90;;;;;;5014316;28;20037;-77
2024/02/25 03:13:37;;;;;;;1.30;1.10;;;14.10;99.90;;;;;;5014228;28;20033;-75
2024/02/25 03:16:03;;;;;;;1.00;0.90;;;14.20;99.90;;;;;;5013939;28;20442;-79
2024/02/25 03:18:28;;;;;;;3.43;1.30;;;14.20;99.90;;;;;;5008234;28;20112;-77
2024/02/25 03:20:54;;;;;;;1.40;0.83;;;14.10;99.90;;;;;;5008493;28;20468;-76
2024/02/25 03:23:20;;;;;;;1.37;1.20;;;14.10;99.90;;;;;;5000381;28;20148;-76
2024/02/25 03:25:46;;;;;;;1.90;1.20;;;14.10;99.90;;;;;;5006715;28;20037;-78
2024/02/25 03:28:11;;;;;;;5.07;1.40;;;14.10;99.90;;;;;;5008679;28;20080;-75
2024/02/25 03:30:37;;;;;;;2.03;1.20;;;14.10;99.90;;;;;;5002274;28;20034;-75
2024/02/25 03:33:05;;;;;;;2.23;1.30;;;14.10;99.90;;;;;;5004169;28;20034;-75
2024/02/25 03:35:32;;;;;;;2.15;1.25;;;14.10;99.90;;;;;;5010150;28;20038;-75
2024/02/25 03:38:00;;;;;;;1.77;1.20;;;14.10;99.90;;;;;;5009444;28;20030;-75
2024/02/25 03:40:26;;;;;;;1.30;1.00;;;14.10;99.90;;;;;;5004526;28;20041;-77
2024/02/25 03:42:51;;;;;;;2.33;1.30;;;14.10;99.90;;;;;;5002865;28;20168;-75
2024/02/25 03:45:17;;;;;;;1.43;0.90;;;14.10;99.90;;;;;;5006531;28;20070;-75
2024/02/25 03:47:43;;;;;;;1.33;1.10;;;14.10;99.90;;;;;;5009597;28;20506;-76
2024/02/25 03:50:10;;;;;;;1.75;1.10;;;14.00;99.90;;;;;;5002630;28;20026;-75
2024/02/25 03:52:37;;;;;;;1.73;0.90;;;14.00;99.90;;;;;;5007116;28;20394;-78
2024/02/25 03:55:03;;;;;;;4.55;1.60;;;14.00;99.90;;;;;;4997887;28;20034;-78
2024/02/25 03:57:29;;;;;;;1.33;1.10;;;14.00;99.90;;;;;;4998359;28;20124;-75
2024/02/25 03:59:54;;;;;;;1.63;0.93;;;14.00;99.90;;;;;;5001897;28;20109;-75
2024/02/25 04:02:20;;;;;;;1.63;1.10;;;14.00;99.90;;;;;;5003756;28;20065;-76
2024/02/25 04:04:46;;;;;;;2.07;1.20;;;14.00;99.90;;;;;;5011498;28;20061;-80
2024/02/25 04:07:15;;;;;;;1.80;1.10;;;14.00;99.90;;;;;;5005588;28;20030;-76
2024/02/25 04:09:41;;;;;;;2.22;1.00;;;14.00;99.90;;;;;;5013229;28;20159;-75
2024/02/25 04:12:07;;;;;;;1.75;1.10;;;14.00;99.90;;;;;;5012906;28;20441;-77
2024/02/25 04:14:34;;;;;;;0.98;0.88;;;14.00;99.90;;;;;;5011914;28;20117;-76
2024/02/25 04:17:00;;;;;;;1.15;1.00;;;14.00;99.90;;;;;;5012255;28;20049;-75
2024/02/25 04:19:26;;;;;;;1.38;1.25;;;13.90;99.90;;;;;;5005193;28;20464;-80
2024/02/25 04:21:52;;;;;;;2.03;1.23;;;14.00;99.90;;;;;;5011386;28;20116;-75
2024/02/25 04:24:18;;;;;;;1.67;1.30;;;14.00;99.90;;;;;;5011431;28;20030;-77
2024/02/25 04:26:44;;;;;;;1.30;1.20;;;13.90;99.90;;;;;;5011431;28;20041;-74
2024/02/25 04:29:10;;;;;;;1.25;1.00;;;13.90;99.90;;;;;;5007759;28;20026;-76
2024/02/25 04:31:45;;;;;;;1.20;1.10;;;13.90;99.90;;;;;;5012568;28;20167;-75
2024/02/25 04:34:12;;;;;;;1.48;1.00;;;13.90;99.90;;;;;;5011369;28;20505;-78
2024/02/25 04:36:39;;;;;;;2.13;1.27;;;13.90;99.90;;;;;;5013112;28;20034;-75
2024/02/25 04:39:05;;;;;;;1.73;1.10;;;13.90;99.90;;;;;;5010706;28;20053;-75
2024/02/25 04:41:31;;;;;;;1.40;1.10;;;13.90;99.90;;;;;;5001687;28;20372;-75
2024/02/25 04:43:57;;;;;;;1.92;1.20;;;13.90;99.90;;;;;;5011221;28;20038;-77
2024/02/25 04:46:23;;;;;;;1.88;1.30;;;13.90;99.90;;;;;;5012267;28;20066;-77
2024/02/25 04:48:49;;;;;;;2.13;1.20;;;13.90;99.90;;;;;;5011098;28;20557;-76
2024/02/25 04:51:15;;;;;;;4.07;1.20;;;13.90;99.90;;;;;;4996436;28;20479;-75
2024/02/25 04:53:41;;;;;;;1.50;1.10;;;13.90;99.90;;;;;;5012179;28;20030;-77
2024/02/25 04:56:07;;;;;;;2.63;1.40;;;13.90;99.90;;;;;;5011799;28;20494;-77
2024/02/25 04:58:33;;;;;;;2.92;1.27;;;13.90;99.90;;;;;;5011029;28;20041;-76
2024/02/25 05:00:58;;;;;;;2.03;1.23;;;13.80;99.90;;;;;;5005294;28;20037;-75
2024/02/25 05:03:24;;;;;;;1.93;1.03;;;13.80;99.90;;;;;;5001787;28;20391;-78
2024/02/25 05:05:50;;;;;;;1.90;1.20;;;13.80;99.90;;;;;;5004335;28;20727;-79
2024/02/25 05:08:16;;;;;;;1.45;1.35;;;13.80;99.90;;;;;;5010541;28;20054;-79
2024/02/25 05:10:42;;;;;;;2.77;1.40;;;13.80;99.90;;;;;;5009776;28;20456;-75
2024/02/25 05:13:08;;;;;;;1.53;1.40;;;13.80;99.90;;;;;;5010924;28;20113;-75
2024/02/25 05:15:34;;;;;;;4.17;1.50;;;13.80;99.90;;;;;;5008073;28;20069;-75
2024/02/25 05:18:01;;;;;;;1.40;1.30;;;13.80;99.90;;;;;;5010620;28;20038;-79
2024/02/25 05:20:27;;;;;;;;;;;13.80;99.90;;;;;;5010724;28;20468;-75
2024/02/25 05:22:53;;;;;;;3.30;1.40;;;13.80;99.90;;;;;;5008454;28;19917;-75
2024/02/25 05:25:19;;;;;;;4.43;1.48;;;13.80;99.90;;;;;;5007335;28;20092;-75
2024/02/25 05:27:46;;;;;;;1.52;1.10;;;13.70;99.90;;;;;;5009863;28;20797;-76
2024/02/25 05:30:12;;;;;;;1.42;1.33;;;13.70;99.90;;;;;;5009350;28;20033;-77
2024/02/25 05:32:38;;;;;;;2.45;1.67;;;13.70;99.90;;;;;;5009966;28;20034;-77
2024/02/25 05:35:06;;;;;;;1.77;1.47;;;13.80;99.90;;;;;;5004740;28;20029;-77
2024/02/25 05:37:32;;;;;;;2.00;1.67;;;13.70;99.90;;;;;;5011314;28;20041;-75
2024/02/25 05:39:58;;;;;;;2.58;1.48;;;13.70;99.90;;;;;;5010280;28;20733;-77
2024/02/25 05:42:24;;;;;;;1.40;1.17;;;13.70;99.90;;;;;;5008333;28;20395;-76
2024/02/25 05:44:51;;;;;;;3.37;1.57;;;13.70;99.90;;;;;;4997903;28;20283;-76
2024/02/25 05:47:17;;;;;;;1.75;1.45;;;13.70;99.90;;;;;;5011122;28;20095;-77
2024/02/25 05:49:43;;;;;;;1.63;1.40;;;13.70;99.90;;;;;;5009989;28;20120;-75
2024/02/25 05:52:09;;;;;;;2.15;1.95;;;13.70;99.90;;;;;;5011427;28;20045;-76
2024/02/25 05:54:35;;;;;;;1.93;1.50;;;13.70;99.90;;;;;;5002199;28;20038;-76
2024/02/25 05:57:01;;;;;;;2.43;1.60;;;13.70;99.90;;;;;;5003403;28;20034;-78
2024/02/25 05:59:26;;;;;;;5.40;1.90;;;13.70;99.90;;;;;;5003350;28;20038;-76
2024/02/25 06:01:52;;;;;;;2.43;1.97;;;13.70;99.90;;;;;;5011087;28;20026;-75
2024/02/25 06:04:19;;;;;;;2.23;1.50;;;13.70;99.90;;;;;;5008550;28;20483;-75
2024/02/25 06:06:54;;;;;;;1.40;1.27;;;13.70;99.90;;;;;;5009187;28;20532;-78
2024/02/25 06:09:21;;;;;;;1.85;1.55;;;13.60;99.90;;;;;;5008760;28;20581;-74
2024/02/25 06:11:48;;;;;;;1.50;1.40;;;13.60;99.90;;;;;;4991974;28;20019;-79
2024/02/25 06:14:14;;;;;;;;;;;13.60;99.90;;;;;;4994628;28;20038;-78
2024/02/25 06:16:40;;;;;;;2.17;1.55;;;13.60;99.90;;;;;;5009060;28;19917;-78
2024/02/25 06:19:06;;;;;;;1.97;1.63;;;13.60;99.90;;;;;;5009419;28;20080;-77
2024/02/25 06:21:32;;;;;;;1.77;1.27;;;13.60;99.90;;;;;;5009390;28;20049;-75
2024/02/25 06:23:58;;;;;;;1.83;1.50;;;13.60;99.90;;;;;;5008522;28;20042;-75
2024/02/25 06:26:24;;;;;;;2.67;1.70;;;13.60;99.90;;;;;;5004190;28;20089;-75
2024/02/25 06:28:49;;;;;;;2.43;1.97;;;13.60;99.90;;;;;;5002894;28;20030;-74
2024/02/25 06:31:15;;;;;;;3.03;1.90;;;13.60;99.90;;;;;;5010618;28;20033;-75
2024/02/25 06:33:41;;;;;;;1.73;1.63;;;13.60;99.90;;;;;;5007003;28;20038;-79
2024/02/25 06:36:17;;;;;;;1.63;1.40;;;13.60;99.90;;;;;;5002619;28;20030;-77
2024/02/25 06:38:42;;;;;;;1.90;1.70;;;13.60;99.90;;;;;;5011070;28;20030;-74
2024/02/25 06:41:20;;;;;;;2.10;1.77;;;13.60;99.90;;;;;;5008666;28;20041;-76
2024/02/25 06:43:46;;;;;;;2.08;1.50;;;13.70;99.90;;;;;;5006938;28;20041;-75
2024/02/25 06:46:12;;;;;;;10.67;2.90;;;13.90;99.90;;;;;;5002750;28;20092;-75
2024/02/25 06:48:37;;;;;;;12.63;2.33;;;13.90;99.90;;;;;;4999935;28;20026;-78
2024/02/25 06:51:03;;;;;;;4.47;2.23;;;14.00;99.90;;;;;;5010217;28;20025;-75
2024/02/25 06:53:31;;;;;;;11.13;2.70;;;14.00;99.90;;;;;;5007754;28;20551;-75
2024/02/25 06:55:57;;;;;;;19.70;3.47;;;14.00;99.90;;;;;;5010135;28;20517;-75
2024/02/25 06:58:23;;;;;;;27.98;2.33;;;14.00;99.90;;;;;;5007559;28;20057;-75
2024/02/25 07:00:49;;;;;;;3.97;2.20;;;14.00;99.90;;;;;;5008500;28;20400;-76
2024/02/25 07:03:15;;;;;;;44.83;21.37;;;14.00;99.90;;;;;;5008785;28;20036;-75
2024/02/25 07:05:44;;;;;;;62.43;29.57;;;14.00;99.90;;;;;;4999139;28;20137;-77
2024/02/25 07:08:10;;;;;;;30.83;14.88;;;14.00;99.90;;;;;;5008917;28;20161;-77
2024/02/25 07:10:36;;;;;;;92.35;71.22;;;14.00;99.90;;;;;;5025222;28;20033;-74
2024/02/25 07:13:03;;;;;;;42.63;23.20;;;14.10;99.90;;;;;;5023637;28;20046;-74
2024/02/25 07:15:29;;;;;;;40.55;22.13;;;14.10;99.90;;;;;;5004720;28;20084;-75
2024/02/25 07:17:54;;;;;;;28.80;16.47;;;14.10;99.90;;;;;;5004417;28;20471;-76
2024/02/25 07:20:20;;;;;;;31.33;17.77;;;14.20;99.90;;;;;;5005991;28;20472;-76
2024/02/25 07:22:47;;;;;;;22.97;13.47;;;14.30;99.90;;;;;;5010065;28;20061;-73
2024/02/25 07:25:14;;;;;;;31.50;17.50;;;14.20;99.90;;;;;;5008332;28;20472;-73
2024/02/25 07:27:40;;;;;;;20.55;10.98;;;14.30;99.90;;;;;;5010188;28;20033;-74
2024/02/25 07:30:06;;;;;;;22.08;11.93;;;14.40;99.90;;;;;;5006031;28;20053;-74
2024/02/25 07:32:32;;;;;;;29.85;11.35;;;14.30;99.90;;;;;;5008231;28;20042;-75
2024/02/25 07:34:59;;;;;;;31.73;11.63;;;14.50;99.90;;;;;;4998614;28;20040;-75
2024/02/25 07:37:27;;;;;;;;;;;14.60;99.90;;;;;;5006131;28;20107;-75
2024/02/25 07:39:53;;;;;;;21.60;11.00;;;14.70;99.90;;;;;;5004889;28;20012;-75
2024/02/25 07:42:19;;;;;;;19.83;10.43;;;14.90;99.90;;;;;;5008048;28;20120;-75
2024/02/25 07:44:45;;;;;;;25.87;10.37;;;15.30;99.90;;;;;;5007387;28;20037;-76
2024/02/25 07:47:10;;;;;;;25.27;10.57;;;15.60;99.90;;;;;;5007984;28;20480;-75
2024/02/25 07:49:36;;;;;;;21.80;9.97;;;15.70;99.90;;;;;;5004475;28;20061;-75
2024/02/25 07:52:02;;;;;;;18.90;9.03;;;16.00;99.90;;;;;;5008551;28;20056;-75
2024/02/25 07:54:28;;;;;;;23.40;9.10;;;16.10;99.90;;;;;;5011552;28;20041;-76
2024/02/25 07:56:53;;;;;;;20.50;9.10;;;16.10;99.90;;;;;;5013612;28;20030;-75
2024/02/25 07:59:19;;;;;;;18.23;9.20;;;16.30;99.90;;;;;;5010109;28;20033;-75
2024/02/25 08:01:44;;;;;;;46.43;11.23;;;16.40;99.90;;;;;;5005961;28;20038;-77
2024/02/25 08:04:10;;;;;;;28.50;9.70;;;16.50;99.90;;;;;;5011721;28;20034;-75
2024/02/25 08:06:36;;;;;;;15.43;8.53;;;16.50;99.90;;;;;;5011211;28;20468;-77
2024/02/25 08:09:02;;;;;;;17.70;8.07;;;16.80;99.90;;;;;;5012919;28;20049;-77
2024/02/25 08:11:27;;;;;;;20.83;9.17;;;16.30;99.90;;;;;;5006622;28;20096;-75
2024/02/25 08:13:53;;;;;;;19.37;8.80;;;16.00;99.90;;;;;;5011071;28;20796;-75
2024/02/25 08:16:24;;;;;;;23.73;9.83;;;15.80;99.90;;;;;;5012982;28;20034;-78
2024/02/25 08:18:49;;;;;;;18.67;8.90;;;15.60;99.90;;;;;;5006800;28;20034;-77
2024/02/25 08:21:15;;;;;;;17.60;7.73;;;15.60;99.90;;;;;;5009718;28;20026;-76
2024/02/25 08:23:42;;;;;;;14.93;8.23;;;15.70;99.90;;;;;;5012451;28;20398;-75
2024/02/25 08:26:08;;;;;;;16.85;8.25;;;15.70;99.90;;;;;;4997643;28;20054;-77
2024/02/25 08:28:36;;;;;;;17.97;8.27;;;16.00;99.90;;;;;;5012596;28;20103;-78
2024/02/25 08:31:01;;;;;;;13.77;7.53;;;16.00;99.90;;;;;;5005310;28;20034;-77
2024/02/25 08:33:27;;;;;;;16.97;7.33;;;16.10;99.90;;;;;;5005208;28;20371;-76
2024/02/25 08:35:53;;;;;;;17.05;6.85;;;16.00;99.90;;;;;;5012197;28;20486;-75
2024/02/25 08:38:19;;;;;;;17.40;7.63;;;16.20;99.90;;;;;;5012279;28;20030;-75
2024/02/25 08:40:45;;;;;;;13.00;7.63;;;16.50;99.90;;;;;;5011123;28;20026;-77
2024/02/25 08:43:10;;;;;;;13.43;7.10;;;16.90;99.90;;;;;;5011223;28;20034;-76
2024/02/25 08:45:36;;;;;;;14.27;6.70;;;17.30;99.90;;;;;;5003527;28;20034;-75
2024/02/25 08:48:02;;;;;;;12.17;7.10;;;17.40;99.90;;;;;;5007273;28;20613;-75
2024/02/25 08:50:28;;;;;;;12.73;6.90;;;17.10;99.90;;;;;;5010871;28;20112;-75
2024/02/25 08:52:54;;;;;;;16.30;7.10;;;16.60;99.90;;;;;;5011964;28;20030;-75
2024/02/25 08:55:20;;;;;;;386.13;164.90;;;16.40;99.90;;;;;;5010785;28;20030;-75
2024/02/25 08:57:46;;;;;;;245.13;108.70;;;16.20;99.90;;;;;;5004881;28;20030;-75
2024/02/25 09:00:12;;;;;;;189.60;83.97;;;16.10;99.90;;;;;;5022788;28;20029;-78
2024/02/25 09:02:38;;;;;;;167.38;75.82;;;16.10;99.90;;;;;;5002977;28;20038;-77
2024/02/25 09:05:05;;;;;;;150.97;67.97;;;16.20;99.90;;;;;;5011538;28;20096;-75
2024/02/25 09:07:31;;;;;;;;;;;16.30;99.90;;;;;;5011660;28;20036;-74
2024/02/25 09:09:57;;;;;;;122.63;53.72;;;16.30;99.90;;;;;;5000990;28;20299;-73
2024/02/25 09:12:23;;;;;;;116.78;49.30;;;16.40;99.90;;;;;;5017036;28;20045;-74
2024/02/25 09:14:50;;;;;;;99.18;45.05;;;16.30;99.90;;;;;;5010002;28;20036;-74
2024/02/25 09:17:15;;;;;;;101.07;45.45;;;16.30;99.90;;;;;;5009553;28;20034;-74
2024/02/25 09:19:42;;;;;;;83.90;39.27;;;16.40;99.90;;;;;;5010974;28;20390;-75
2024/02/25 09:22:08;;;;;;;141.93;83.25;;;16.40;99.90;;;;;;5008630;28;20091;-75
2024/02/25 09:24:33;;;;;;;102.87;53.33;;;16.60;99.90;;;;;;5003360;28;20042;-75
2024/02/25 09:26:59;;;;;;;104.30;56.07;;;16.60;99.90;;;;;;5003456;28;20515;-74
2024/02/25 09:29:25;;;;;;;101.83;52.17;;;16.50;99.90;;;;;;5009095;28;20053;-73
2024/02/25 09:31:54;;;;;;;88.97;46.40;;;16.40;99.90;;;;;;5007548;28;20060;-74
2024/02/25 09:34:20;;;;;;;93.80;46.17;;;16.40;99.90;;;;;;5008727;28;20124;-73
2024/02/25 09:36:45;;;;;;;82.80;41.27;;;16.40;99.90;;;;;;5004715;28;20112;-74
2024/02/25 09:39:12;;;;;;;85.27;39.67;;;16.50;99.90;;;;;;5009964;28;20033;-74
2024/02/25 09:41:41;;;;;;;78.80;41.38;;;16.60;99.90;;;;;;5009407;28;20044;-73
2024/02/25 09:44:22;;;;;;;73.22;36.95;;;17.00;99.90;;;;;;5009139;28;20108;-74
2024/02/25 09:46:52;;;;;;;67.18;34.92;;;17.20;99.90;;;;;;5008089;28;20064;-74
2024/02/25 09:49:19;;;;;;;69.63;35.80;;;17.40;99.90;;;;;;5009522;28;20033;-74
2024/02/25 09:51:48;;;;;;;57.58;31.13;;;17.40;99.90;;;;;;5009442;28;20116;-75
2024/02/25 09:54:15;;;;;;;62.97;33.55;;;17.40;99.90;;;;;;5009450;28;20057;-75
2024/02/25 09:56:45;;;;;;;54.67;30.73;;;17.70;99.90;;;;;;4997096;28;20029;-73
2024/02/25 09:59:10;;;;;;;54.00;29.98;;;17.90;99.90;;;;;;4992808;28;20524;-74
2024/02/25 10:01:36;;;;;;;62.30;29.57;;;18.00;99.90;;;;;;5001424;28;20117;-75
2024/02/25 10:04:02;;;;;;;49.37;27.87;;;17.60;99.90;;;;;;5010792;28;20460;-75
2024/02/25 10:06:35;;;;;;;73.43;41.70;;;17.60;99.90;;;;;;5010498;28;20038;-74
2024/02/25 10:09:01;;;;;;;54.80;29.92;;;18.20;99.90;;;;;;5001508;28;20053;-74
2024/02/25 10:11:28;;;;;;;65.53;33.53;;;18.10;99.90;;;;;;5001911;28;20081;-75
2024/02/25 10:13:56;;;;;;;56.20;30.45;;;18.20;99.90;;;;;;5009343;28;20100;-74
2024/02/25 10:16:23;;;;;;;53.40;29.52;;;18.50;99.90;;;;;;5006036;28;20041;-74
2024/02/25 10:18:50;;;;;;;54.28;29.00;;;18.60;99.90;;;;;;5009146;28;20034;-76
2024/02/25 10:21:16;;;;;;;45.03;27.85;;;18.70;99.90;;;;;;5003073;28;20095;-74
2024/02/25 10:23:42;;;;;;;49.65;25.67;;;19.10;99.90;;;;;;5000818;28;20110;-76
2024/02/25 10:26:13;;;;;;;52.90;24.13;;;19.40;99.90;;;;;;4996208;28;20129;-75
2024/02/25 10:28:39;;;;;;;43.47;23.92;;;20.00;99.90;;;;;;5006960;28;20062;-74
2024/02/25 10:31:05;;;;;;;45.08;24.90;;;20.10;99.90;;;;;;5004712;28;20374;-76
2024/02/25 10:33:31;;;;;;;39.20;22.50;;;19.70;99.90;;;;;;5003587;28;20038;-75
2024/02/25 10:36:12;;;;;;;47.78;23.20;;;20.50;99.90;;;;;;5001913;28;20487;-76
2024/02/25 10:38:44;;;;;;;44.33;22.25;;;22.10;99.90;;;;;;5005328;28;20033;-74
2024/02/25 10:41:10;;;;;;;115.03;65.65;;;21.00;99.90;;;;;;5007548;28;20120;-75
2024/02/25 10:43:37;;;;;;;45.13;24.27;;;20.00;99.90;;;;;;5010388;28;20121;-75
2024/02/25 10:46:42;;;;;;;55.20;25.88;;;19.40;99.90;;;;;;5006963;28;20129;-74
2024/02/25 10:49:12;;;;;;;48.92;23.65;;;19.20;99.90;;;;;;5004102;28;20499;-74
2024/02/25 10:51:39;;;;;;;47.92;23.92;;;19.10;99.90;;;;;;5009820;28;20153;-75
2024/02/25 10:54:06;;;;;;;53.58;23.30;;;19.40;99.90;;;;;;5008169;28;20394;-75
2024/02/25 10:56:34;;;;;;;40.85;21.58;;;19.90;99.90;;;;;;5007827;28;20119;-75
2024/02/25 10:59:00;;;;;;;43.88;21.45;;;19.70;99.90;;;;;;5002860;28;20031;-75
2024/02/25 11:01:27;;;;;;;;;;;19.30;99.90;;;;;;5008184;28;20033;-77
2024/02/25 11:03:53;;;;;;;35.50;19.15;;;19.00;99.90;;;;;;5008548;28;19913;-76
2024/02/25 11:06:33;;;;;;;39.05;18.60;;;19.30;99.90;;;;;;5008514;28;20132;-77
2024/02/25 11:09:12;;;;;;;41.50;19.42;;;19.90;99.90;;;;;;5006305;28;20046;-76
2024/02/25 11:11:44;;;;;;;37.40;19.63;;;20.40;99.90;;;;;;5020884;28;20079;-76
2024/02/25 11:14:16;;;;;;;36.80;17.27;;;20.50;99.90;;;;;;5009797;28;20123;-76
2024/02/25 11:16:46;;;;;;;36.47;18.23;;;20.60;99.90;;;;;;5006701;28;20112;-76
2024/02/25 11:19:16;;;;;;;42.00;16.95;;;20.70;99.90;;;;;;5001630;28;20033;-75
2024/02/25 11:21:42;;;;;;;34.28;16.45;;;21.00;99.90;;;;;;5008783;28;20504;-77
2024/02/25 11:24:12;;;;;;;39.58;16.60;;;20.50;99.90;;;;;;5003166;28;20085;-78
2024/02/25 11:26:43;;;;;;;36.53;15.85;;;20.00;99.90;;;;;;5007565;28;20033;-76
2024/02/25 11:29:21;;;;;;;36.30;14.65;;;19.60;99.90;;;;;;5010939;28;20113;-76
2024/02/25 11:31:57;;;;;;;34.25;20.45;;;20.10;99.90;;;;;;5006170;28;20081;-79
2024/02/25 11:34:28;;;;;;;28.52;16.17;;;21.00;99.90;;;;;;5002359;28;20037;-73
2024/02/25 11:36:58;;;;;;;29.20;16.05;;;20.90;99.90;;;;;;5011812;28;20029;-73
2024/02/25 11:39:29;;;;;;;27.25;14.82;;;21.30;99.90;;;;;;5013268;28;20022;-73
2024/02/25 11:41:56;;;;;;;33.30;14.93;;;22.40;99.90;;;;;;5013023;28;20026;-74
2024/02/25 11:44:24;;;;;;;34.90;14.18;;;21.10;99.90;;;;;;5008532;28;20044;-76
2024/02/25 11:47:11;;;;;;;28.98;12.93;;;20.80;99.90;;;;;;5004754;28;20042;-75
2024/02/25 11:49:39;;;;;;;34.75;13.40;;;20.50;99.90;;;;;;5012346;28;20045;-75
2024/02/25 11:52:06;;;;;;;30.33;13.70;;;19.80;99.90;;;;;;5011496;28;20120;-75
2024/02/25 11:54:31;;;;;;;38.70;14.35;;;19.40;99.90;;;;;;5010527;28;20072;-76
2024/02/25 11:56:59;;;;;;;29.50;13.17;;;19.20;99.90;;;;;;4993456;28;20061;-74
2024/02/25 11:59:24;;;;;;;33.70;13.93;;;19.10;99.90;;;;;;5011670;28;20092;-73
2024/02/25 12:01:52;;;;;;;28.67;12.50;;;19.00;99.90;;;;;;5012734;28;20033;-72
2024/02/25 12:04:18;;;;;;;34.67;12.70;;;19.00;99.90;;;;;;5000897;28;20547;-74
2024/02/25 12:06:45;;;;;;;28.75;13.05;;;18.90;99.90;;;;;;5009326;28;20059;-74
2024/02/25 12:09:14;;;;;;;;;;;18.90;99.90;;;;;;5011474;28;20057;-75
2024/02/25 12:11:41;;;;;;;24.52;11.00;;;19.00;99.90;;;;;;5011185;28;19925;-78
2024/02/25 12:14:20;;;;;;;23.02;11.77;;;19.30;99.90;;;;;;5009464;28;20038;-75
2024/02/25 12:16:47;;;;;;;23.20;11.90;;;19.30;99.90;;;;;;5007592;28;20030;-75
2024/02/25 12:19:13;;;;;;;24.73;10.45;;;19.10;99.90;;;;;;5011580;28;20054;-77
2024/02/25 12:21:51;;;;;;;25.75;10.90;;;18.90;99.90;;;;;;5027854;28;20041;-72
2024/02/25 12:24:17;;;;;;;21.92;10.82;;;18.70;99.90;;;;;;5003821;28;20034;-77
2024/02/25 12:26:50;;;;;;;21.27;10.60;;;18.80;99.90;;;;;;5011506;28;20034;-73
2024/02/25 12:29:16;;;;;;;20.67;11.10;;;19.00;99.90;;;;;;5012188;28;20033;-74
2024/02/25 12:31:42;;;;;;;20.58;10.35;;;19.30;99.90;;;;;;5004447;28;20041;-75
2024/02/25 12:34:09;;;;;;;27.15;11.63;;;19.50;99.90;;;;;;5002637;28;20030;-75
2024/02/25 12:36:34;;;;;;;23.52;10.43;;;19.30;99.90;;;;;;5009432;28;20056;-75
2024/02/25 12:39:00;;;;;;;19.97;9.40;;;19.20;99.90;;;;;;5010414;28;20546;-77